<?xml version="1.0" encoding="UTF-8" standalone="no" ?>
<gpx version="1.1" creator="Visorando" xmlns:xsi="http://www.w3.org/2001/XMLSchema-instance" xmlns="http://www.topografix.com/GPX/1/1" xsi:schemaLocation="http://www.topografix.com/GPX/1/1 http://www.topografix.com/GPX/1/1/gpx.xsd">
<metadata>
  <name>Randonnée du 05/01/2026 à 08:54</name>
  <link href="https://www.visorando.com/randonnee-90060609/">
    <text>https://www.visorando.com/randonnee-90060609/</text>
  </link>
</metadata><wpt lat="43.234" lon="-1.63956">
  <ele>96</ele>
  <time>2026-01-05T07:54:31.000Z</time>
  <name>Point de passage 1</name>
  <type>GENERIC</type>
</wpt><wpt lat="43.233997" lon="-1.639335">
  <ele>93</ele>
  <time>2026-01-05T12:08:37.000Z</time>
  <name>Point de passage 2</name>
  <type>GENERIC</type>
</wpt><trk>
  <name>Randonnée du 05/01/2026 à 08:54</name>
  <trkseg>
    <trkpt lat="43.234" lon="-1.63956">
      <ele>96</ele>
      <time>2026-01-05T07:54:31.000Z</time>
    </trkpt>
    <trkpt lat="43.233939" lon="-1.639262">
      <ele>93</ele>
      <time>2026-01-05T08:00:02.000Z</time>
    </trkpt>
    <trkpt lat="43.234065" lon="-1.638989">
      <ele>94</ele>
      <time>2026-01-05T08:00:41.000Z</time>
    </trkpt>
    <trkpt lat="43.234122" lon="-1.638684">
      <ele>93</ele>
      <time>2026-01-05T08:02:44.000Z</time>
    </trkpt>
    <trkpt lat="43.234144" lon="-1.638368">
      <ele>96</ele>
      <time>2026-01-05T08:03:00.000Z</time>
    </trkpt>
    <trkpt lat="43.234133" lon="-1.638043">
      <ele>96</ele>
      <time>2026-01-05T08:03:20.000Z</time>
    </trkpt>
    <trkpt lat="43.234074" lon="-1.637742">
      <ele>98</ele>
      <time>2026-01-05T08:03:38.000Z</time>
    </trkpt>
    <trkpt lat="43.234041" lon="-1.637433">
      <ele>99</ele>
      <time>2026-01-05T08:03:53.000Z</time>
    </trkpt>
    <trkpt lat="43.234047" lon="-1.637124">
      <ele>101</ele>
      <time>2026-01-05T08:04:09.000Z</time>
    </trkpt>
    <trkpt lat="43.234051" lon="-1.637435">
      <ele>99</ele>
      <time>2026-01-05T08:05:39.000Z</time>
    </trkpt>
    <trkpt lat="43.234074" lon="-1.637746">
      <ele>98</ele>
      <time>2026-01-05T08:05:55.000Z</time>
    </trkpt>
    <trkpt lat="43.23414" lon="-1.63805">
      <ele>97</ele>
      <time>2026-01-05T08:06:10.000Z</time>
    </trkpt>
    <trkpt lat="43.23411" lon="-1.638363">
      <ele>97</ele>
      <time>2026-01-05T08:06:24.000Z</time>
    </trkpt>
    <trkpt lat="43.234128" lon="-1.638691">
      <ele>96</ele>
      <time>2026-01-05T08:06:40.000Z</time>
    </trkpt>
    <trkpt lat="43.234071" lon="-1.638995">
      <ele>96</ele>
      <time>2026-01-05T08:06:57.000Z</time>
    </trkpt>
    <trkpt lat="43.234115" lon="-1.638687">
      <ele>96</ele>
      <time>2026-01-05T08:07:50.000Z</time>
    </trkpt>
    <trkpt lat="43.234136" lon="-1.638377">
      <ele>97</ele>
      <time>2026-01-05T08:08:09.000Z</time>
    </trkpt>
    <trkpt lat="43.234136" lon="-1.638061">
      <ele>96</ele>
      <time>2026-01-05T08:08:25.000Z</time>
    </trkpt>
    <trkpt lat="43.234066" lon="-1.637762">
      <ele>97</ele>
      <time>2026-01-05T08:08:43.000Z</time>
    </trkpt>
    <trkpt lat="43.234034" lon="-1.637455">
      <ele>99</ele>
      <time>2026-01-05T08:09:01.000Z</time>
    </trkpt>
    <trkpt lat="43.234037" lon="-1.63714">
      <ele>100</ele>
      <time>2026-01-05T08:09:19.000Z</time>
    </trkpt>
    <trkpt lat="43.234127" lon="-1.636849">
      <ele>101</ele>
      <time>2026-01-05T08:09:59.000Z</time>
    </trkpt>
    <trkpt lat="43.234346" lon="-1.636731">
      <ele>98</ele>
      <time>2026-01-05T08:10:19.000Z</time>
    </trkpt>
    <trkpt lat="43.234525" lon="-1.636525">
      <ele>97</ele>
      <time>2026-01-05T08:10:35.000Z</time>
    </trkpt>
    <trkpt lat="43.234709" lon="-1.636316">
      <ele>96</ele>
      <time>2026-01-05T08:10:54.000Z</time>
    </trkpt>
    <trkpt lat="43.234923" lon="-1.636202">
      <ele>96</ele>
      <time>2026-01-05T08:11:11.000Z</time>
    </trkpt>
    <trkpt lat="43.235138" lon="-1.636083">
      <ele>96</ele>
      <time>2026-01-05T08:11:29.000Z</time>
    </trkpt>
    <trkpt lat="43.235349" lon="-1.635959">
      <ele>95</ele>
      <time>2026-01-05T08:11:47.000Z</time>
    </trkpt>
    <trkpt lat="43.235584" lon="-1.63592">
      <ele>98</ele>
      <time>2026-01-05T08:12:31.000Z</time>
    </trkpt>
    <trkpt lat="43.235792" lon="-1.635785">
      <ele>100</ele>
      <time>2026-01-05T08:12:50.000Z</time>
    </trkpt>
    <trkpt lat="43.236017" lon="-1.635764">
      <ele>102</ele>
      <time>2026-01-05T08:13:08.000Z</time>
    </trkpt>
    <trkpt lat="43.236247" lon="-1.63583">
      <ele>100</ele>
      <time>2026-01-05T08:13:40.000Z</time>
    </trkpt>
    <trkpt lat="43.236417" lon="-1.635617">
      <ele>99</ele>
      <time>2026-01-05T08:14:03.000Z</time>
    </trkpt>
    <trkpt lat="43.236562" lon="-1.635369">
      <ele>101</ele>
      <time>2026-01-05T08:14:20.000Z</time>
    </trkpt>
    <trkpt lat="43.236454" lon="-1.635093">
      <ele>98</ele>
      <time>2026-01-05T08:14:38.000Z</time>
    </trkpt>
    <trkpt lat="43.236332" lon="-1.634821">
      <ele>97</ele>
      <time>2026-01-05T08:14:57.000Z</time>
    </trkpt>
    <trkpt lat="43.236419" lon="-1.634533">
      <ele>99</ele>
      <time>2026-01-05T08:15:15.000Z</time>
    </trkpt>
    <trkpt lat="43.236473" lon="-1.634229">
      <ele>103</ele>
      <time>2026-01-05T08:15:39.000Z</time>
    </trkpt>
    <trkpt lat="43.236644" lon="-1.634026">
      <ele>108</ele>
      <time>2026-01-05T08:15:59.000Z</time>
    </trkpt>
    <trkpt lat="43.236744" lon="-1.633739">
      <ele>111</ele>
      <time>2026-01-05T08:16:28.000Z</time>
    </trkpt>
    <trkpt lat="43.236936" lon="-1.633558">
      <ele>115</ele>
      <time>2026-01-05T08:16:53.000Z</time>
    </trkpt>
    <trkpt lat="43.237157" lon="-1.633491">
      <ele>121</ele>
      <time>2026-01-05T08:17:21.000Z</time>
    </trkpt>
    <trkpt lat="43.237124" lon="-1.633182">
      <ele>127</ele>
      <time>2026-01-05T08:17:49.000Z</time>
    </trkpt>
    <trkpt lat="43.237109" lon="-1.632864">
      <ele>134</ele>
      <time>2026-01-05T08:18:17.000Z</time>
    </trkpt>
    <trkpt lat="43.237042" lon="-1.632564">
      <ele>140</ele>
      <time>2026-01-05T08:18:42.000Z</time>
    </trkpt>
    <trkpt lat="43.236944" lon="-1.632285">
      <ele>138</ele>
      <time>2026-01-05T08:19:07.000Z</time>
    </trkpt>
    <trkpt lat="43.236841" lon="-1.632003">
      <ele>139</ele>
      <time>2026-01-05T08:19:29.000Z</time>
    </trkpt>
    <trkpt lat="43.23677" lon="-1.631708">
      <ele>138</ele>
      <time>2026-01-05T08:19:50.000Z</time>
    </trkpt>
    <trkpt lat="43.236684" lon="-1.631416">
      <ele>138</ele>
      <time>2026-01-05T08:20:11.000Z</time>
    </trkpt>
    <trkpt lat="43.236619" lon="-1.631105">
      <ele>139</ele>
      <time>2026-01-05T08:20:31.000Z</time>
    </trkpt>
    <trkpt lat="43.236582" lon="-1.630792">
      <ele>139</ele>
      <time>2026-01-05T08:20:54.000Z</time>
    </trkpt>
    <trkpt lat="43.236635" lon="-1.630488">
      <ele>141</ele>
      <time>2026-01-05T08:21:17.000Z</time>
    </trkpt>
    <trkpt lat="43.236736" lon="-1.63021">
      <ele>145</ele>
      <time>2026-01-05T08:21:40.000Z</time>
    </trkpt>
    <trkpt lat="43.236785" lon="-1.629903">
      <ele>150</ele>
      <time>2026-01-05T08:22:03.000Z</time>
    </trkpt>
    <trkpt lat="43.236896" lon="-1.629628">
      <ele>153</ele>
      <time>2026-01-05T08:22:34.000Z</time>
    </trkpt>
    <trkpt lat="43.237033" lon="-1.629379">
      <ele>162</ele>
      <time>2026-01-05T08:23:07.000Z</time>
    </trkpt>
    <trkpt lat="43.237158" lon="-1.629108">
      <ele>168</ele>
      <time>2026-01-05T08:23:40.000Z</time>
    </trkpt>
    <trkpt lat="43.237342" lon="-1.62892">
      <ele>173</ele>
      <time>2026-01-05T08:24:12.000Z</time>
    </trkpt>
    <trkpt lat="43.237567" lon="-1.628836">
      <ele>178</ele>
      <time>2026-01-05T08:24:52.000Z</time>
    </trkpt>
    <trkpt lat="43.237801" lon="-1.628818">
      <ele>186</ele>
      <time>2026-01-05T08:25:23.000Z</time>
    </trkpt>
    <trkpt lat="43.238033" lon="-1.628833">
      <ele>187</ele>
      <time>2026-01-05T08:25:52.000Z</time>
    </trkpt>
    <trkpt lat="43.238249" lon="-1.628723">
      <ele>192</ele>
      <time>2026-01-05T08:26:23.000Z</time>
    </trkpt>
    <trkpt lat="43.238455" lon="-1.628577">
      <ele>197</ele>
      <time>2026-01-05T08:26:54.000Z</time>
    </trkpt>
    <trkpt lat="43.238685" lon="-1.628507">
      <ele>202</ele>
      <time>2026-01-05T08:27:19.000Z</time>
    </trkpt>
    <trkpt lat="43.238898" lon="-1.628407">
      <ele>202</ele>
      <time>2026-01-05T08:27:42.000Z</time>
    </trkpt>
    <trkpt lat="43.239121" lon="-1.628363">
      <ele>208</ele>
      <time>2026-01-05T08:28:09.000Z</time>
    </trkpt>
    <trkpt lat="43.239353" lon="-1.628397">
      <ele>214</ele>
      <time>2026-01-05T08:28:37.000Z</time>
    </trkpt>
    <trkpt lat="43.239578" lon="-1.628455">
      <ele>217</ele>
      <time>2026-01-05T08:29:05.000Z</time>
    </trkpt>
    <trkpt lat="43.239785" lon="-1.628314">
      <ele>220</ele>
      <time>2026-01-05T08:29:31.000Z</time>
    </trkpt>
    <trkpt lat="43.239953" lon="-1.628095">
      <ele>223</ele>
      <time>2026-01-05T08:29:56.000Z</time>
    </trkpt>
    <trkpt lat="43.240109" lon="-1.627874">
      <ele>228</ele>
      <time>2026-01-05T08:30:25.000Z</time>
    </trkpt>
    <trkpt lat="43.240309" lon="-1.627731">
      <ele>234</ele>
      <time>2026-01-05T08:35:42.000Z</time>
    </trkpt>
    <trkpt lat="43.240523" lon="-1.627621">
      <ele>241</ele>
      <time>2026-01-05T08:36:12.000Z</time>
    </trkpt>
    <trkpt lat="43.240737" lon="-1.627512">
      <ele>246</ele>
      <time>2026-01-05T08:36:46.000Z</time>
    </trkpt>
    <trkpt lat="43.240945" lon="-1.627375">
      <ele>249</ele>
      <time>2026-01-05T08:37:17.000Z</time>
    </trkpt>
    <trkpt lat="43.241123" lon="-1.627173">
      <ele>253</ele>
      <time>2026-01-05T08:37:45.000Z</time>
    </trkpt>
    <trkpt lat="43.241257" lon="-1.626918">
      <ele>255</ele>
      <time>2026-01-05T08:38:15.000Z</time>
    </trkpt>
    <trkpt lat="43.241457" lon="-1.626766">
      <ele>260</ele>
      <time>2026-01-05T08:38:51.000Z</time>
    </trkpt>
    <trkpt lat="43.241553" lon="-1.626471">
      <ele>263</ele>
      <time>2026-01-05T08:39:14.000Z</time>
    </trkpt>
    <trkpt lat="43.241656" lon="-1.626188">
      <ele>264</ele>
      <time>2026-01-05T08:39:35.000Z</time>
    </trkpt>
    <trkpt lat="43.241835" lon="-1.626002">
      <ele>262</ele>
      <time>2026-01-05T08:39:54.000Z</time>
    </trkpt>
    <trkpt lat="43.242037" lon="-1.625847">
      <ele>263</ele>
      <time>2026-01-05T08:40:14.000Z</time>
    </trkpt>
    <trkpt lat="43.242235" lon="-1.625698">
      <ele>263</ele>
      <time>2026-01-05T08:40:33.000Z</time>
    </trkpt>
    <trkpt lat="43.242429" lon="-1.62552">
      <ele>264</ele>
      <time>2026-01-05T08:40:52.000Z</time>
    </trkpt>
    <trkpt lat="43.242595" lon="-1.625298">
      <ele>264</ele>
      <time>2026-01-05T08:41:13.000Z</time>
    </trkpt>
    <trkpt lat="43.242744" lon="-1.625063">
      <ele>266</ele>
      <time>2026-01-05T08:41:30.000Z</time>
    </trkpt>
    <trkpt lat="43.242891" lon="-1.624806">
      <ele>267</ele>
      <time>2026-01-05T08:41:51.000Z</time>
    </trkpt>
    <trkpt lat="43.242975" lon="-1.624512">
      <ele>268</ele>
      <time>2026-01-05T08:42:11.000Z</time>
    </trkpt>
    <trkpt lat="43.243134" lon="-1.624275">
      <ele>268</ele>
      <time>2026-01-05T08:42:30.000Z</time>
    </trkpt>
    <trkpt lat="43.243331" lon="-1.624106">
      <ele>268</ele>
      <time>2026-01-05T08:42:49.000Z</time>
    </trkpt>
    <trkpt lat="43.24352" lon="-1.623917">
      <ele>267</ele>
      <time>2026-01-05T08:43:07.000Z</time>
    </trkpt>
    <trkpt lat="43.24367" lon="-1.623677">
      <ele>266</ele>
      <time>2026-01-05T08:43:26.000Z</time>
    </trkpt>
    <trkpt lat="43.243858" lon="-1.623499">
      <ele>266</ele>
      <time>2026-01-05T08:43:46.000Z</time>
    </trkpt>
    <trkpt lat="43.243783" lon="-1.623201">
      <ele>264</ele>
      <time>2026-01-05T08:45:41.000Z</time>
    </trkpt>
    <trkpt lat="43.243927" lon="-1.622952">
      <ele>266</ele>
      <time>2026-01-05T08:46:01.000Z</time>
    </trkpt>
    <trkpt lat="43.244129" lon="-1.622803">
      <ele>264</ele>
      <time>2026-01-05T08:46:23.000Z</time>
    </trkpt>
    <trkpt lat="43.24426" lon="-1.622544">
      <ele>264</ele>
      <time>2026-01-05T08:46:43.000Z</time>
    </trkpt>
    <trkpt lat="43.244291" lon="-1.622228">
      <ele>267</ele>
      <time>2026-01-05T08:47:04.000Z</time>
    </trkpt>
    <trkpt lat="43.244361" lon="-1.621933">
      <ele>268</ele>
      <time>2026-01-05T08:47:26.000Z</time>
    </trkpt>
    <trkpt lat="43.2445" lon="-1.621679">
      <ele>271</ele>
      <time>2026-01-05T08:47:46.000Z</time>
    </trkpt>
    <trkpt lat="43.244658" lon="-1.621452">
      <ele>272</ele>
      <time>2026-01-05T08:48:06.000Z</time>
    </trkpt>
    <trkpt lat="43.244814" lon="-1.62121">
      <ele>275</ele>
      <time>2026-01-05T08:48:27.000Z</time>
    </trkpt>
    <trkpt lat="43.244981" lon="-1.620984">
      <ele>276</ele>
      <time>2026-01-05T08:48:49.000Z</time>
    </trkpt>
    <trkpt lat="43.245137" lon="-1.620737">
      <ele>277</ele>
      <time>2026-01-05T08:49:09.000Z</time>
    </trkpt>
    <trkpt lat="43.24529" lon="-1.620505">
      <ele>276</ele>
      <time>2026-01-05T08:49:29.000Z</time>
    </trkpt>
    <trkpt lat="43.24544" lon="-1.620252">
      <ele>276</ele>
      <time>2026-01-05T08:49:48.000Z</time>
    </trkpt>
    <trkpt lat="43.245574" lon="-1.620002">
      <ele>273</ele>
      <time>2026-01-05T08:50:06.000Z</time>
    </trkpt>
    <trkpt lat="43.245659" lon="-1.619705">
      <ele>273</ele>
      <time>2026-01-05T08:50:24.000Z</time>
    </trkpt>
    <trkpt lat="43.245742" lon="-1.619418">
      <ele>273</ele>
      <time>2026-01-05T08:50:42.000Z</time>
    </trkpt>
    <trkpt lat="43.245759" lon="-1.619109">
      <ele>274</ele>
      <time>2026-01-05T08:51:01.000Z</time>
    </trkpt>
    <trkpt lat="43.245821" lon="-1.618809">
      <ele>278</ele>
      <time>2026-01-05T08:51:56.000Z</time>
    </trkpt>
    <trkpt lat="43.245972" lon="-1.618578">
      <ele>281</ele>
      <time>2026-01-05T08:52:17.000Z</time>
    </trkpt>
    <trkpt lat="43.246137" lon="-1.618362">
      <ele>279</ele>
      <time>2026-01-05T08:52:36.000Z</time>
    </trkpt>
    <trkpt lat="43.246309" lon="-1.618147">
      <ele>278</ele>
      <time>2026-01-05T08:52:52.000Z</time>
    </trkpt>
    <trkpt lat="43.246407" lon="-1.617861">
      <ele>279</ele>
      <time>2026-01-05T08:53:09.000Z</time>
    </trkpt>
    <trkpt lat="43.246496" lon="-1.617572">
      <ele>280</ele>
      <time>2026-01-05T08:53:27.000Z</time>
    </trkpt>
    <trkpt lat="43.24656" lon="-1.617273">
      <ele>282</ele>
      <time>2026-01-05T08:53:47.000Z</time>
    </trkpt>
    <trkpt lat="43.246749" lon="-1.617099">
      <ele>286</ele>
      <time>2026-01-05T08:54:03.000Z</time>
    </trkpt>
    <trkpt lat="43.24689" lon="-1.61685">
      <ele>289</ele>
      <time>2026-01-05T08:54:25.000Z</time>
    </trkpt>
    <trkpt lat="43.247038" lon="-1.616599">
      <ele>293</ele>
      <time>2026-01-05T08:54:49.000Z</time>
    </trkpt>
    <trkpt lat="43.247062" lon="-1.61628">
      <ele>298</ele>
      <time>2026-01-05T08:55:12.000Z</time>
    </trkpt>
    <trkpt lat="43.24708" lon="-1.615969">
      <ele>302</ele>
      <time>2026-01-05T08:55:37.000Z</time>
    </trkpt>
    <trkpt lat="43.247098" lon="-1.615659">
      <ele>306</ele>
      <time>2026-01-05T08:56:10.000Z</time>
    </trkpt>
    <trkpt lat="43.247247" lon="-1.615414">
      <ele>313</ele>
      <time>2026-01-05T08:56:47.000Z</time>
    </trkpt>
    <trkpt lat="43.247367" lon="-1.615138">
      <ele>315</ele>
      <time>2026-01-05T08:57:12.000Z</time>
    </trkpt>
    <trkpt lat="43.247412" lon="-1.614834">
      <ele>319</ele>
      <time>2026-01-05T08:57:34.000Z</time>
    </trkpt>
    <trkpt lat="43.247482" lon="-1.614538">
      <ele>321</ele>
      <time>2026-01-05T08:57:58.000Z</time>
    </trkpt>
    <trkpt lat="43.247628" lon="-1.614291">
      <ele>324</ele>
      <time>2026-01-05T08:58:22.000Z</time>
    </trkpt>
    <trkpt lat="43.247759" lon="-1.614035">
      <ele>329</ele>
      <time>2026-01-05T08:58:51.000Z</time>
    </trkpt>
    <trkpt lat="43.247817" lon="-1.613736">
      <ele>335</ele>
      <time>2026-01-05T08:59:30.000Z</time>
    </trkpt>
    <trkpt lat="43.24795" lon="-1.61348">
      <ele>345</ele>
      <time>2026-01-05T09:03:14.000Z</time>
    </trkpt>
    <trkpt lat="43.248038" lon="-1.61319">
      <ele>352</ele>
      <time>2026-01-05T09:06:13.000Z</time>
    </trkpt>
    <trkpt lat="43.248147" lon="-1.612915">
      <ele>359</ele>
      <time>2026-01-05T09:06:58.000Z</time>
    </trkpt>
    <trkpt lat="43.248207" lon="-1.612615">
      <ele>367</ele>
      <time>2026-01-05T09:07:42.000Z</time>
    </trkpt>
    <trkpt lat="43.24828" lon="-1.612322">
      <ele>368</ele>
      <time>2026-01-05T09:08:11.000Z</time>
    </trkpt>
    <trkpt lat="43.248436" lon="-1.612096">
      <ele>377</ele>
      <time>2026-01-05T09:08:45.000Z</time>
    </trkpt>
    <trkpt lat="43.248502" lon="-1.611794">
      <ele>380</ele>
      <time>2026-01-05T09:09:16.000Z</time>
    </trkpt>
    <trkpt lat="43.248551" lon="-1.611483">
      <ele>383</ele>
      <time>2026-01-05T09:09:50.000Z</time>
    </trkpt>
    <trkpt lat="43.248615" lon="-1.611185">
      <ele>391</ele>
      <time>2026-01-05T09:10:28.000Z</time>
    </trkpt>
    <trkpt lat="43.248708" lon="-1.610891">
      <ele>399</ele>
      <time>2026-01-05T09:11:07.000Z</time>
    </trkpt>
    <trkpt lat="43.248825" lon="-1.610608">
      <ele>407</ele>
      <time>2026-01-05T09:11:46.000Z</time>
    </trkpt>
    <trkpt lat="43.249013" lon="-1.610438">
      <ele>417</ele>
      <time>2026-01-05T09:12:18.000Z</time>
    </trkpt>
    <trkpt lat="43.249201" lon="-1.610261">
      <ele>415</ele>
      <time>2026-01-05T09:12:49.000Z</time>
    </trkpt>
    <trkpt lat="43.249403" lon="-1.610118">
      <ele>418</ele>
      <time>2026-01-05T09:13:15.000Z</time>
    </trkpt>
    <trkpt lat="43.249616" lon="-1.609984">
      <ele>422</ele>
      <time>2026-01-05T09:13:43.000Z</time>
    </trkpt>
    <trkpt lat="43.249746" lon="-1.609732">
      <ele>428</ele>
      <time>2026-01-05T09:14:49.000Z</time>
    </trkpt>
    <trkpt lat="43.24959" lon="-1.609503">
      <ele>431</ele>
      <time>2026-01-05T09:15:45.000Z</time>
    </trkpt>
    <trkpt lat="43.249384" lon="-1.609627">
      <ele>432</ele>
      <time>2026-01-05T09:16:16.000Z</time>
    </trkpt>
    <trkpt lat="43.249159" lon="-1.609593">
      <ele>437</ele>
      <time>2026-01-05T09:17:02.000Z</time>
    </trkpt>
    <trkpt lat="43.249385" lon="-1.609593">
      <ele>432</ele>
      <time>2026-01-05T09:26:18.000Z</time>
    </trkpt>
    <trkpt lat="43.249602" lon="-1.609512">
      <ele>430</ele>
      <time>2026-01-05T09:26:50.000Z</time>
    </trkpt>
    <trkpt lat="43.249786" lon="-1.609335">
      <ele>433</ele>
      <time>2026-01-05T09:28:03.000Z</time>
    </trkpt>
    <trkpt lat="43.250007" lon="-1.609236">
      <ele>437</ele>
      <time>2026-01-05T09:28:29.000Z</time>
    </trkpt>
    <trkpt lat="43.250191" lon="-1.609044">
      <ele>442</ele>
      <time>2026-01-05T09:28:54.000Z</time>
    </trkpt>
    <trkpt lat="43.250384" lon="-1.608875">
      <ele>445</ele>
      <time>2026-01-05T09:29:18.000Z</time>
    </trkpt>
    <trkpt lat="43.250587" lon="-1.608725">
      <ele>446</ele>
      <time>2026-01-05T09:29:47.000Z</time>
    </trkpt>
    <trkpt lat="43.25076" lon="-1.608524">
      <ele>449</ele>
      <time>2026-01-05T09:30:16.000Z</time>
    </trkpt>
    <trkpt lat="43.250904" lon="-1.608276">
      <ele>454</ele>
      <time>2026-01-05T09:30:48.000Z</time>
    </trkpt>
    <trkpt lat="43.25106" lon="-1.608052">
      <ele>460</ele>
      <time>2026-01-05T09:31:21.000Z</time>
    </trkpt>
    <trkpt lat="43.251257" lon="-1.607881">
      <ele>462</ele>
      <time>2026-01-05T09:31:47.000Z</time>
    </trkpt>
    <trkpt lat="43.251447" lon="-1.607705">
      <ele>464</ele>
      <time>2026-01-05T09:32:09.000Z</time>
    </trkpt>
    <trkpt lat="43.251632" lon="-1.607522">
      <ele>465</ele>
      <time>2026-01-05T09:32:31.000Z</time>
    </trkpt>
    <trkpt lat="43.251837" lon="-1.607379">
      <ele>469</ele>
      <time>2026-01-05T09:32:55.000Z</time>
    </trkpt>
    <trkpt lat="43.252014" lon="-1.607173">
      <ele>472</ele>
      <time>2026-01-05T09:33:22.000Z</time>
    </trkpt>
    <trkpt lat="43.252199" lon="-1.606988">
      <ele>474</ele>
      <time>2026-01-05T09:36:02.000Z</time>
    </trkpt>
    <trkpt lat="43.252343" lon="-1.606746">
      <ele>473</ele>
      <time>2026-01-05T09:37:30.000Z</time>
    </trkpt>
    <trkpt lat="43.252445" lon="-1.606463">
      <ele>474</ele>
      <time>2026-01-05T09:37:49.000Z</time>
    </trkpt>
    <trkpt lat="43.252517" lon="-1.606161">
      <ele>478</ele>
      <time>2026-01-05T09:38:09.000Z</time>
    </trkpt>
    <trkpt lat="43.252631" lon="-1.605892">
      <ele>481</ele>
      <time>2026-01-05T09:38:29.000Z</time>
    </trkpt>
    <trkpt lat="43.252746" lon="-1.605614">
      <ele>483</ele>
      <time>2026-01-05T09:38:50.000Z</time>
    </trkpt>
    <trkpt lat="43.252825" lon="-1.605312">
      <ele>486</ele>
      <time>2026-01-05T09:39:12.000Z</time>
    </trkpt>
    <trkpt lat="43.252878" lon="-1.605004">
      <ele>488</ele>
      <time>2026-01-05T09:39:33.000Z</time>
    </trkpt>
    <trkpt lat="43.252931" lon="-1.604699">
      <ele>489</ele>
      <time>2026-01-05T09:39:54.000Z</time>
    </trkpt>
    <trkpt lat="43.252991" lon="-1.604399">
      <ele>492</ele>
      <time>2026-01-05T09:40:29.000Z</time>
    </trkpt>
    <trkpt lat="43.252986" lon="-1.604087">
      <ele>499</ele>
      <time>2026-01-05T09:41:03.000Z</time>
    </trkpt>
    <trkpt lat="43.253039" lon="-1.603784">
      <ele>510</ele>
      <time>2026-01-05T09:42:06.000Z</time>
    </trkpt>
    <trkpt lat="43.253195" lon="-1.603553">
      <ele>519</ele>
      <time>2026-01-05T09:42:52.000Z</time>
    </trkpt>
    <trkpt lat="43.253378" lon="-1.603368">
      <ele>524</ele>
      <time>2026-01-05T09:43:59.000Z</time>
    </trkpt>
    <trkpt lat="43.253297" lon="-1.603072">
      <ele>521</ele>
      <time>2026-01-05T09:45:44.000Z</time>
    </trkpt>
    <trkpt lat="43.253437" lon="-1.602815">
      <ele>514</ele>
      <time>2026-01-05T09:46:19.000Z</time>
    </trkpt>
    <trkpt lat="43.253594" lon="-1.60259">
      <ele>510</ele>
      <time>2026-01-05T09:46:46.000Z</time>
    </trkpt>
    <trkpt lat="43.253566" lon="-1.602282">
      <ele>504</ele>
      <time>2026-01-05T09:47:50.000Z</time>
    </trkpt>
    <trkpt lat="43.253622" lon="-1.60198">
      <ele>497</ele>
      <time>2026-01-05T09:48:19.000Z</time>
    </trkpt>
    <trkpt lat="43.253691" lon="-1.601676">
      <ele>490</ele>
      <time>2026-01-05T09:48:41.000Z</time>
    </trkpt>
    <trkpt lat="43.253782" lon="-1.601387">
      <ele>486</ele>
      <time>2026-01-05T09:49:02.000Z</time>
    </trkpt>
    <trkpt lat="43.253894" lon="-1.601104">
      <ele>483</ele>
      <time>2026-01-05T09:49:22.000Z</time>
    </trkpt>
    <trkpt lat="43.254046" lon="-1.600865">
      <ele>480</ele>
      <time>2026-01-05T09:49:45.000Z</time>
    </trkpt>
    <trkpt lat="43.25421" lon="-1.600642">
      <ele>480</ele>
      <time>2026-01-05T09:50:04.000Z</time>
    </trkpt>
    <trkpt lat="43.254385" lon="-1.600436">
      <ele>480</ele>
      <time>2026-01-05T09:50:26.000Z</time>
    </trkpt>
    <trkpt lat="43.254596" lon="-1.600327">
      <ele>481</ele>
      <time>2026-01-05T09:51:13.000Z</time>
    </trkpt>
    <trkpt lat="43.254513" lon="-1.600026">
      <ele>478</ele>
      <time>2026-01-05T10:00:48.000Z</time>
    </trkpt>
    <trkpt lat="43.254535" lon="-1.599708">
      <ele>478</ele>
      <time>2026-01-05T10:01:57.000Z</time>
    </trkpt>
    <trkpt lat="43.254631" lon="-1.599428">
      <ele>484</ele>
      <time>2026-01-05T10:02:19.000Z</time>
    </trkpt>
    <trkpt lat="43.254769" lon="-1.599179">
      <ele>489</ele>
      <time>2026-01-05T10:02:43.000Z</time>
    </trkpt>
    <trkpt lat="43.25489" lon="-1.59892">
      <ele>493</ele>
      <time>2026-01-05T10:03:07.000Z</time>
    </trkpt>
    <trkpt lat="43.254922" lon="-1.598605">
      <ele>497</ele>
      <time>2026-01-05T10:03:33.000Z</time>
    </trkpt>
    <trkpt lat="43.254954" lon="-1.598287">
      <ele>501</ele>
      <time>2026-01-05T10:03:58.000Z</time>
    </trkpt>
    <trkpt lat="43.255031" lon="-1.597995">
      <ele>506</ele>
      <time>2026-01-05T10:04:23.000Z</time>
    </trkpt>
    <trkpt lat="43.255037" lon="-1.597683">
      <ele>509</ele>
      <time>2026-01-05T10:04:46.000Z</time>
    </trkpt>
    <trkpt lat="43.254979" lon="-1.597383">
      <ele>512</ele>
      <time>2026-01-05T10:05:09.000Z</time>
    </trkpt>
    <trkpt lat="43.254956" lon="-1.597073">
      <ele>510</ele>
      <time>2026-01-05T10:05:32.000Z</time>
    </trkpt>
    <trkpt lat="43.254871" lon="-1.596775">
      <ele>507</ele>
      <time>2026-01-05T10:05:54.000Z</time>
    </trkpt>
    <trkpt lat="43.254687" lon="-1.596579">
      <ele>506</ele>
      <time>2026-01-05T10:06:15.000Z</time>
    </trkpt>
    <trkpt lat="43.254481" lon="-1.596433">
      <ele>505</ele>
      <time>2026-01-05T10:06:38.000Z</time>
    </trkpt>
    <trkpt lat="43.254292" lon="-1.596624">
      <ele>503</ele>
      <time>2026-01-05T10:07:01.000Z</time>
    </trkpt>
    <trkpt lat="43.25422" lon="-1.596917">
      <ele>503</ele>
      <time>2026-01-05T10:07:25.000Z</time>
    </trkpt>
    <trkpt lat="43.254198" lon="-1.597234">
      <ele>502</ele>
      <time>2026-01-05T10:07:45.000Z</time>
    </trkpt>
    <trkpt lat="43.254091" lon="-1.597517">
      <ele>501</ele>
      <time>2026-01-05T10:08:06.000Z</time>
    </trkpt>
    <trkpt lat="43.253968" lon="-1.597782">
      <ele>501</ele>
      <time>2026-01-05T10:08:30.000Z</time>
    </trkpt>
    <trkpt lat="43.253815" lon="-1.598025">
      <ele>498</ele>
      <time>2026-01-05T10:08:51.000Z</time>
    </trkpt>
    <trkpt lat="43.253672" lon="-1.598273">
      <ele>497</ele>
      <time>2026-01-05T10:09:10.000Z</time>
    </trkpt>
    <trkpt lat="43.253586" lon="-1.598566">
      <ele>495</ele>
      <time>2026-01-05T10:09:29.000Z</time>
    </trkpt>
    <trkpt lat="43.253666" lon="-1.598863">
      <ele>492</ele>
      <time>2026-01-05T10:09:50.000Z</time>
    </trkpt>
    <trkpt lat="43.253806" lon="-1.599116">
      <ele>489</ele>
      <time>2026-01-05T10:10:10.000Z</time>
    </trkpt>
    <trkpt lat="43.253973" lon="-1.599341">
      <ele>485</ele>
      <time>2026-01-05T10:10:32.000Z</time>
    </trkpt>
    <trkpt lat="43.25414" lon="-1.599551">
      <ele>483</ele>
      <time>2026-01-05T10:10:52.000Z</time>
    </trkpt>
    <trkpt lat="43.254328" lon="-1.599732">
      <ele>480</ele>
      <time>2026-01-05T10:11:12.000Z</time>
    </trkpt>
    <trkpt lat="43.254205" lon="-1.600001">
      <ele>473</ele>
      <time>2026-01-05T10:11:46.000Z</time>
    </trkpt>
    <trkpt lat="43.253972" lon="-1.600047">
      <ele>470</ele>
      <time>2026-01-05T10:12:09.000Z</time>
    </trkpt>
    <trkpt lat="43.253749" lon="-1.600092">
      <ele>468</ele>
      <time>2026-01-05T10:12:31.000Z</time>
    </trkpt>
    <trkpt lat="43.253523" lon="-1.600137">
      <ele>465</ele>
      <time>2026-01-05T10:12:52.000Z</time>
    </trkpt>
    <trkpt lat="43.253314" lon="-1.600264">
      <ele>459</ele>
      <time>2026-01-05T10:13:18.000Z</time>
    </trkpt>
    <trkpt lat="43.253104" lon="-1.600388">
      <ele>456</ele>
      <time>2026-01-05T10:13:44.000Z</time>
    </trkpt>
    <trkpt lat="43.253119" lon="-1.600078">
      <ele>450</ele>
      <time>2026-01-05T10:14:31.000Z</time>
    </trkpt>
    <trkpt lat="43.253005" lon="-1.599808">
      <ele>444</ele>
      <time>2026-01-05T10:14:53.000Z</time>
    </trkpt>
    <trkpt lat="43.252816" lon="-1.599631">
      <ele>440</ele>
      <time>2026-01-05T10:15:21.000Z</time>
    </trkpt>
    <trkpt lat="43.252591" lon="-1.599541">
      <ele>433</ele>
      <time>2026-01-05T10:15:47.000Z</time>
    </trkpt>
    <trkpt lat="43.252359" lon="-1.599531">
      <ele>429</ele>
      <time>2026-01-05T10:16:13.000Z</time>
    </trkpt>
    <trkpt lat="43.252131" lon="-1.599469">
      <ele>423</ele>
      <time>2026-01-05T10:16:40.000Z</time>
    </trkpt>
    <trkpt lat="43.251926" lon="-1.599315">
      <ele>416</ele>
      <time>2026-01-05T10:17:06.000Z</time>
    </trkpt>
    <trkpt lat="43.251753" lon="-1.599113">
      <ele>412</ele>
      <time>2026-01-05T10:17:27.000Z</time>
    </trkpt>
    <trkpt lat="43.251699" lon="-1.5988">
      <ele>405</ele>
      <time>2026-01-05T10:17:52.000Z</time>
    </trkpt>
    <trkpt lat="43.251617" lon="-1.598505">
      <ele>401</ele>
      <time>2026-01-05T10:18:17.000Z</time>
    </trkpt>
    <trkpt lat="43.251417" lon="-1.598346">
      <ele>396</ele>
      <time>2026-01-05T10:18:42.000Z</time>
    </trkpt>
    <trkpt lat="43.251293" lon="-1.598081">
      <ele>391</ele>
      <time>2026-01-05T10:19:07.000Z</time>
    </trkpt>
    <trkpt lat="43.25115" lon="-1.597834">
      <ele>385</ele>
      <time>2026-01-05T10:19:31.000Z</time>
    </trkpt>
    <trkpt lat="43.250984" lon="-1.597625">
      <ele>380</ele>
      <time>2026-01-05T10:19:57.000Z</time>
    </trkpt>
    <trkpt lat="43.250754" lon="-1.597621">
      <ele>377</ele>
      <time>2026-01-05T10:20:26.000Z</time>
    </trkpt>
    <trkpt lat="43.25072" lon="-1.597929">
      <ele>378</ele>
      <time>2026-01-05T10:21:02.000Z</time>
    </trkpt>
    <trkpt lat="43.250824" lon="-1.598204">
      <ele>381</ele>
      <time>2026-01-05T10:21:27.000Z</time>
    </trkpt>
    <trkpt lat="43.250695" lon="-1.598463">
      <ele>382</ele>
      <time>2026-01-05T10:22:04.000Z</time>
    </trkpt>
    <trkpt lat="43.250556" lon="-1.598717">
      <ele>385</ele>
      <time>2026-01-05T10:22:30.000Z</time>
    </trkpt>
    <trkpt lat="43.250445" lon="-1.598995">
      <ele>389</ele>
      <time>2026-01-05T10:22:54.000Z</time>
    </trkpt>
    <trkpt lat="43.25039" lon="-1.599299">
      <ele>391</ele>
      <time>2026-01-05T10:23:19.000Z</time>
    </trkpt>
    <trkpt lat="43.250357" lon="-1.599619">
      <ele>391</ele>
      <time>2026-01-05T10:23:43.000Z</time>
    </trkpt>
    <trkpt lat="43.250259" lon="-1.599906">
      <ele>391</ele>
      <time>2026-01-05T10:24:10.000Z</time>
    </trkpt>
    <trkpt lat="43.25005" lon="-1.600023">
      <ele>394</ele>
      <time>2026-01-05T10:24:33.000Z</time>
    </trkpt>
    <trkpt lat="43.24984" lon="-1.600154">
      <ele>395</ele>
      <time>2026-01-05T10:24:57.000Z</time>
    </trkpt>
    <trkpt lat="43.249636" lon="-1.600002">
      <ele>398</ele>
      <time>2026-01-05T10:25:43.000Z</time>
    </trkpt>
    <trkpt lat="43.249456" lon="-1.599815">
      <ele>402</ele>
      <time>2026-01-05T10:26:40.000Z</time>
    </trkpt>
    <trkpt lat="43.249331" lon="-1.599548">
      <ele>402</ele>
      <time>2026-01-05T10:28:10.000Z</time>
    </trkpt>
    <trkpt lat="43.249222" lon="-1.599267">
      <ele>405</ele>
      <time>2026-01-05T10:28:35.000Z</time>
    </trkpt>
    <trkpt lat="43.249132" lon="-1.598978">
      <ele>407</ele>
      <time>2026-01-05T10:28:58.000Z</time>
    </trkpt>
    <trkpt lat="43.249157" lon="-1.598658">
      <ele>412</ele>
      <time>2026-01-05T10:29:24.000Z</time>
    </trkpt>
    <trkpt lat="43.249152" lon="-1.598347">
      <ele>414</ele>
      <time>2026-01-05T10:29:47.000Z</time>
    </trkpt>
    <trkpt lat="43.249144" lon="-1.598026">
      <ele>417</ele>
      <time>2026-01-05T10:30:12.000Z</time>
    </trkpt>
    <trkpt lat="43.249095" lon="-1.597723">
      <ele>422</ele>
      <time>2026-01-05T10:30:35.000Z</time>
    </trkpt>
    <trkpt lat="43.249016" lon="-1.597431">
      <ele>423</ele>
      <time>2026-01-05T10:30:57.000Z</time>
    </trkpt>
    <trkpt lat="43.248913" lon="-1.597142">
      <ele>426</ele>
      <time>2026-01-05T10:31:19.000Z</time>
    </trkpt>
    <trkpt lat="43.248791" lon="-1.596877">
      <ele>428</ele>
      <time>2026-01-05T10:31:42.000Z</time>
    </trkpt>
    <trkpt lat="43.248662" lon="-1.596619">
      <ele>431</ele>
      <time>2026-01-05T10:32:07.000Z</time>
    </trkpt>
    <trkpt lat="43.248572" lon="-1.596335">
      <ele>435</ele>
      <time>2026-01-05T10:32:28.000Z</time>
    </trkpt>
    <trkpt lat="43.248511" lon="-1.596032">
      <ele>436</ele>
      <time>2026-01-05T10:32:50.000Z</time>
    </trkpt>
    <trkpt lat="43.24849" lon="-1.595718">
      <ele>438</ele>
      <time>2026-01-05T10:33:13.000Z</time>
    </trkpt>
    <trkpt lat="43.248476" lon="-1.595398">
      <ele>439</ele>
      <time>2026-01-05T10:33:35.000Z</time>
    </trkpt>
    <trkpt lat="43.248453" lon="-1.595087">
      <ele>441</ele>
      <time>2026-01-05T10:33:57.000Z</time>
    </trkpt>
    <trkpt lat="43.248432" lon="-1.594767">
      <ele>440</ele>
      <time>2026-01-05T10:34:18.000Z</time>
    </trkpt>
    <trkpt lat="43.248368" lon="-1.594467">
      <ele>441</ele>
      <time>2026-01-05T10:34:40.000Z</time>
    </trkpt>
    <trkpt lat="43.248186" lon="-1.594261">
      <ele>442</ele>
      <time>2026-01-05T10:35:03.000Z</time>
    </trkpt>
    <trkpt lat="43.247969" lon="-1.594161">
      <ele>441</ele>
      <time>2026-01-05T10:36:02.000Z</time>
    </trkpt>
    <trkpt lat="43.247743" lon="-1.594178">
      <ele>444</ele>
      <time>2026-01-05T10:36:24.000Z</time>
    </trkpt>
    <trkpt lat="43.247528" lon="-1.594054">
      <ele>444</ele>
      <time>2026-01-05T10:36:48.000Z</time>
    </trkpt>
    <trkpt lat="43.247396" lon="-1.593792">
      <ele>445</ele>
      <time>2026-01-05T10:37:08.000Z</time>
    </trkpt>
    <trkpt lat="43.247446" lon="-1.594106">
      <ele>449</ele>
      <time>2026-01-05T10:38:28.000Z</time>
    </trkpt>
    <trkpt lat="43.247545" lon="-1.594395">
      <ele>450</ele>
      <time>2026-01-05T10:38:51.000Z</time>
    </trkpt>
    <trkpt lat="43.247441" lon="-1.594676">
      <ele>449</ele>
      <time>2026-01-05T10:39:16.000Z</time>
    </trkpt>
    <trkpt lat="43.247308" lon="-1.594934">
      <ele>450</ele>
      <time>2026-01-05T10:39:40.000Z</time>
    </trkpt>
    <trkpt lat="43.247182" lon="-1.59519">
      <ele>449</ele>
      <time>2026-01-05T10:40:03.000Z</time>
    </trkpt>
    <trkpt lat="43.246968" lon="-1.595302">
      <ele>448</ele>
      <time>2026-01-05T10:40:31.000Z</time>
    </trkpt>
    <trkpt lat="43.246747" lon="-1.595208">
      <ele>448</ele>
      <time>2026-01-05T10:41:07.000Z</time>
    </trkpt>
    <trkpt lat="43.246532" lon="-1.595115">
      <ele>452</ele>
      <time>2026-01-05T10:41:28.000Z</time>
    </trkpt>
    <trkpt lat="43.246308" lon="-1.595042">
      <ele>454</ele>
      <time>2026-01-05T10:41:51.000Z</time>
    </trkpt>
    <trkpt lat="43.246076" lon="-1.594995">
      <ele>455</ele>
      <time>2026-01-05T10:42:13.000Z</time>
    </trkpt>
    <trkpt lat="43.245853" lon="-1.59495">
      <ele>458</ele>
      <time>2026-01-05T10:42:34.000Z</time>
    </trkpt>
    <trkpt lat="43.245619" lon="-1.594894">
      <ele>461</ele>
      <time>2026-01-05T10:42:55.000Z</time>
    </trkpt>
    <trkpt lat="43.245391" lon="-1.594848">
      <ele>461</ele>
      <time>2026-01-05T10:43:17.000Z</time>
    </trkpt>
    <trkpt lat="43.245159" lon="-1.594831">
      <ele>464</ele>
      <time>2026-01-05T10:43:37.000Z</time>
    </trkpt>
    <trkpt lat="43.244923" lon="-1.594804">
      <ele>467</ele>
      <time>2026-01-05T10:44:01.000Z</time>
    </trkpt>
    <trkpt lat="43.244694" lon="-1.594717">
      <ele>470</ele>
      <time>2026-01-05T10:44:23.000Z</time>
    </trkpt>
    <trkpt lat="43.244465" lon="-1.594667">
      <ele>471</ele>
      <time>2026-01-05T10:44:45.000Z</time>
    </trkpt>
    <trkpt lat="43.244235" lon="-1.594647">
      <ele>472</ele>
      <time>2026-01-05T10:45:08.000Z</time>
    </trkpt>
    <trkpt lat="43.24402" lon="-1.594543">
      <ele>473</ele>
      <time>2026-01-05T10:45:31.000Z</time>
    </trkpt>
    <trkpt lat="43.243811" lon="-1.594421">
      <ele>474</ele>
      <time>2026-01-05T10:45:54.000Z</time>
    </trkpt>
    <trkpt lat="43.243592" lon="-1.594301">
      <ele>476</ele>
      <time>2026-01-05T10:46:16.000Z</time>
    </trkpt>
    <trkpt lat="43.243396" lon="-1.59414">
      <ele>477</ele>
      <time>2026-01-05T10:46:38.000Z</time>
    </trkpt>
    <trkpt lat="43.243169" lon="-1.594093">
      <ele>478</ele>
      <time>2026-01-05T10:46:59.000Z</time>
    </trkpt>
    <trkpt lat="43.242943" lon="-1.594086">
      <ele>477</ele>
      <time>2026-01-05T10:47:25.000Z</time>
    </trkpt>
    <trkpt lat="43.242711" lon="-1.594057">
      <ele>481</ele>
      <time>2026-01-05T10:47:50.000Z</time>
    </trkpt>
    <trkpt lat="43.242484" lon="-1.594043">
      <ele>484</ele>
      <time>2026-01-05T10:48:19.000Z</time>
    </trkpt>
    <trkpt lat="43.242259" lon="-1.594008">
      <ele>489</ele>
      <time>2026-01-05T10:49:03.000Z</time>
    </trkpt>
    <trkpt lat="43.242029" lon="-1.59401">
      <ele>494</ele>
      <time>2026-01-05T10:49:31.000Z</time>
    </trkpt>
    <trkpt lat="43.241797" lon="-1.593978">
      <ele>499</ele>
      <time>2026-01-05T10:50:04.000Z</time>
    </trkpt>
    <trkpt lat="43.241596" lon="-1.594116">
      <ele>501</ele>
      <time>2026-01-05T10:50:29.000Z</time>
    </trkpt>
    <trkpt lat="43.241458" lon="-1.594367">
      <ele>503</ele>
      <time>2026-01-05T10:50:57.000Z</time>
    </trkpt>
    <trkpt lat="43.241312" lon="-1.594609">
      <ele>505</ele>
      <time>2026-01-05T10:51:23.000Z</time>
    </trkpt>
    <trkpt lat="43.241177" lon="-1.594859">
      <ele>507</ele>
      <time>2026-01-05T10:51:48.000Z</time>
    </trkpt>
    <trkpt lat="43.241011" lon="-1.595084">
      <ele>507</ele>
      <time>2026-01-05T10:52:11.000Z</time>
    </trkpt>
    <trkpt lat="43.240905" lon="-1.59536">
      <ele>510</ele>
      <time>2026-01-05T10:52:36.000Z</time>
    </trkpt>
    <trkpt lat="43.241006" lon="-1.595643">
      <ele>509</ele>
      <time>2026-01-05T10:56:17.000Z</time>
    </trkpt>
    <trkpt lat="43.241191" lon="-1.595822">
      <ele>504</ele>
      <time>2026-01-05T10:56:42.000Z</time>
    </trkpt>
    <trkpt lat="43.241225" lon="-1.596128">
      <ele>497</ele>
      <time>2026-01-05T10:57:05.000Z</time>
    </trkpt>
    <trkpt lat="43.24123" lon="-1.596445">
      <ele>494</ele>
      <time>2026-01-05T10:57:25.000Z</time>
    </trkpt>
    <trkpt lat="43.241209" lon="-1.596761">
      <ele>493</ele>
      <time>2026-01-05T10:57:50.000Z</time>
    </trkpt>
    <trkpt lat="43.241168" lon="-1.597068">
      <ele>490</ele>
      <time>2026-01-05T10:58:12.000Z</time>
    </trkpt>
    <trkpt lat="43.241088" lon="-1.597359">
      <ele>490</ele>
      <time>2026-01-05T10:58:31.000Z</time>
    </trkpt>
    <trkpt lat="43.240992" lon="-1.59765">
      <ele>490</ele>
      <time>2026-01-05T10:58:52.000Z</time>
    </trkpt>
    <trkpt lat="43.240881" lon="-1.597931">
      <ele>487</ele>
      <time>2026-01-05T10:59:15.000Z</time>
    </trkpt>
    <trkpt lat="43.240791" lon="-1.598218">
      <ele>483</ele>
      <time>2026-01-05T10:59:37.000Z</time>
    </trkpt>
    <trkpt lat="43.240655" lon="-1.598469">
      <ele>478</ele>
      <time>2026-01-05T10:59:58.000Z</time>
    </trkpt>
    <trkpt lat="43.240626" lon="-1.598786">
      <ele>477</ele>
      <time>2026-01-05T11:00:17.000Z</time>
    </trkpt>
    <trkpt lat="43.240513" lon="-1.599055">
      <ele>471</ele>
      <time>2026-01-05T11:00:43.000Z</time>
    </trkpt>
    <trkpt lat="43.240349" lon="-1.599277">
      <ele>471</ele>
      <time>2026-01-05T11:01:07.000Z</time>
    </trkpt>
    <trkpt lat="43.240314" lon="-1.599595">
      <ele>472</ele>
      <time>2026-01-05T11:01:33.000Z</time>
    </trkpt>
    <trkpt lat="43.240351" lon="-1.599903">
      <ele>472</ele>
      <time>2026-01-05T11:02:00.000Z</time>
    </trkpt>
    <trkpt lat="43.24037" lon="-1.60022">
      <ele>472</ele>
      <time>2026-01-05T11:02:22.000Z</time>
    </trkpt>
    <trkpt lat="43.240385" lon="-1.600529">
      <ele>469</ele>
      <time>2026-01-05T11:02:44.000Z</time>
    </trkpt>
    <trkpt lat="43.24044" lon="-1.600837">
      <ele>467</ele>
      <time>2026-01-05T11:03:04.000Z</time>
    </trkpt>
    <trkpt lat="43.24059" lon="-1.601069">
      <ele>467</ele>
      <time>2026-01-05T11:03:23.000Z</time>
    </trkpt>
    <trkpt lat="43.240627" lon="-1.601378">
      <ele>469</ele>
      <time>2026-01-05T11:03:44.000Z</time>
    </trkpt>
    <trkpt lat="43.240631" lon="-1.601689">
      <ele>469</ele>
      <time>2026-01-05T11:04:03.000Z</time>
    </trkpt>
    <trkpt lat="43.240612" lon="-1.602007">
      <ele>468</ele>
      <time>2026-01-05T11:04:23.000Z</time>
    </trkpt>
    <trkpt lat="43.240579" lon="-1.602327">
      <ele>468</ele>
      <time>2026-01-05T11:04:45.000Z</time>
    </trkpt>
    <trkpt lat="43.240548" lon="-1.602634">
      <ele>468</ele>
      <time>2026-01-05T11:05:05.000Z</time>
    </trkpt>
    <trkpt lat="43.240506" lon="-1.602945">
      <ele>467</ele>
      <time>2026-01-05T11:05:26.000Z</time>
    </trkpt>
    <trkpt lat="43.240478" lon="-1.60327">
      <ele>468</ele>
      <time>2026-01-05T11:05:45.000Z</time>
    </trkpt>
    <trkpt lat="43.240574" lon="-1.603568">
      <ele>471</ele>
      <time>2026-01-05T11:06:04.000Z</time>
    </trkpt>
    <trkpt lat="43.240659" lon="-1.603865">
      <ele>471</ele>
      <time>2026-01-05T11:06:24.000Z</time>
    </trkpt>
    <trkpt lat="43.240621" lon="-1.604185">
      <ele>473</ele>
      <time>2026-01-05T11:06:45.000Z</time>
    </trkpt>
    <trkpt lat="43.240565" lon="-1.604484">
      <ele>470</ele>
      <time>2026-01-05T11:07:06.000Z</time>
    </trkpt>
    <trkpt lat="43.240509" lon="-1.604792">
      <ele>467</ele>
      <time>2026-01-05T11:07:27.000Z</time>
    </trkpt>
    <trkpt lat="43.240409" lon="-1.60508">
      <ele>466</ele>
      <time>2026-01-05T11:07:49.000Z</time>
    </trkpt>
    <trkpt lat="43.240203" lon="-1.605205">
      <ele>464</ele>
      <time>2026-01-05T11:08:09.000Z</time>
    </trkpt>
    <trkpt lat="43.240066" lon="-1.605459">
      <ele>456</ele>
      <time>2026-01-05T11:08:34.000Z</time>
    </trkpt>
    <trkpt lat="43.240031" lon="-1.605773">
      <ele>453</ele>
      <time>2026-01-05T11:08:54.000Z</time>
    </trkpt>
    <trkpt lat="43.240024" lon="-1.606095">
      <ele>452</ele>
      <time>2026-01-05T11:09:15.000Z</time>
    </trkpt>
    <trkpt lat="43.240076" lon="-1.606409">
      <ele>453</ele>
      <time>2026-01-05T11:09:36.000Z</time>
    </trkpt>
    <trkpt lat="43.240002" lon="-1.606701">
      <ele>450</ele>
      <time>2026-01-05T11:09:58.000Z</time>
    </trkpt>
    <trkpt lat="43.239831" lon="-1.606907">
      <ele>444</ele>
      <time>2026-01-05T11:11:58.000Z</time>
    </trkpt>
    <trkpt lat="43.239626" lon="-1.607055">
      <ele>440</ele>
      <time>2026-01-05T11:12:25.000Z</time>
    </trkpt>
    <trkpt lat="43.239405" lon="-1.607132">
      <ele>436</ele>
      <time>2026-01-05T11:12:48.000Z</time>
    </trkpt>
    <trkpt lat="43.239208" lon="-1.607309">
      <ele>432</ele>
      <time>2026-01-05T11:13:09.000Z</time>
    </trkpt>
    <trkpt lat="43.239" lon="-1.607429">
      <ele>429</ele>
      <time>2026-01-05T11:13:30.000Z</time>
    </trkpt>
    <trkpt lat="43.238796" lon="-1.607572">
      <ele>426</ele>
      <time>2026-01-05T11:13:50.000Z</time>
    </trkpt>
    <trkpt lat="43.238652" lon="-1.607835">
      <ele>425</ele>
      <time>2026-01-05T11:14:11.000Z</time>
    </trkpt>
    <trkpt lat="43.238672" lon="-1.608149">
      <ele>429</ele>
      <time>2026-01-05T11:14:29.000Z</time>
    </trkpt>
    <trkpt lat="43.238687" lon="-1.608467">
      <ele>432</ele>
      <time>2026-01-05T11:14:55.000Z</time>
    </trkpt>
    <trkpt lat="43.2386" lon="-1.608753">
      <ele>432</ele>
      <time>2026-01-05T11:15:20.000Z</time>
    </trkpt>
    <trkpt lat="43.238392" lon="-1.608884">
      <ele>430</ele>
      <time>2026-01-05T11:15:36.000Z</time>
    </trkpt>
    <trkpt lat="43.23819" lon="-1.60903">
      <ele>429</ele>
      <time>2026-01-05T11:16:08.000Z</time>
    </trkpt>
    <trkpt lat="43.237994" lon="-1.609186">
      <ele>425</ele>
      <time>2026-01-05T11:16:28.000Z</time>
    </trkpt>
    <trkpt lat="43.237782" lon="-1.609292">
      <ele>422</ele>
      <time>2026-01-05T11:16:50.000Z</time>
    </trkpt>
    <trkpt lat="43.237575" lon="-1.609172">
      <ele>419</ele>
      <time>2026-01-05T11:17:11.000Z</time>
    </trkpt>
    <trkpt lat="43.237366" lon="-1.609041">
      <ele>413</ele>
      <time>2026-01-05T11:17:36.000Z</time>
    </trkpt>
    <trkpt lat="43.237138" lon="-1.609055">
      <ele>405</ele>
      <time>2026-01-05T11:18:00.000Z</time>
    </trkpt>
    <trkpt lat="43.236934" lon="-1.60919">
      <ele>404</ele>
      <time>2026-01-05T11:18:24.000Z</time>
    </trkpt>
    <trkpt lat="43.236788" lon="-1.609434">
      <ele>402</ele>
      <time>2026-01-05T11:18:44.000Z</time>
    </trkpt>
    <trkpt lat="43.236608" lon="-1.609633">
      <ele>404</ele>
      <time>2026-01-05T11:19:02.000Z</time>
    </trkpt>
    <trkpt lat="43.236418" lon="-1.609816">
      <ele>404</ele>
      <time>2026-01-05T11:19:22.000Z</time>
    </trkpt>
    <trkpt lat="43.236233" lon="-1.610004">
      <ele>405</ele>
      <time>2026-01-05T11:19:46.000Z</time>
    </trkpt>
    <trkpt lat="43.236022" lon="-1.610126">
      <ele>403</ele>
      <time>2026-01-05T11:20:13.000Z</time>
    </trkpt>
    <trkpt lat="43.235821" lon="-1.609977">
      <ele>398</ele>
      <time>2026-01-05T11:20:38.000Z</time>
    </trkpt>
    <trkpt lat="43.235608" lon="-1.609859">
      <ele>395</ele>
      <time>2026-01-05T11:20:58.000Z</time>
    </trkpt>
    <trkpt lat="43.235388" lon="-1.609765">
      <ele>393</ele>
      <time>2026-01-05T11:21:18.000Z</time>
    </trkpt>
    <trkpt lat="43.235185" lon="-1.609925">
      <ele>393</ele>
      <time>2026-01-05T11:21:40.000Z</time>
    </trkpt>
    <trkpt lat="43.235018" lon="-1.610148">
      <ele>389</ele>
      <time>2026-01-05T11:22:01.000Z</time>
    </trkpt>
    <trkpt lat="43.23485" lon="-1.610354">
      <ele>387</ele>
      <time>2026-01-05T11:22:22.000Z</time>
    </trkpt>
    <trkpt lat="43.234693" lon="-1.610596">
      <ele>383</ele>
      <time>2026-01-05T11:22:43.000Z</time>
    </trkpt>
    <trkpt lat="43.234578" lon="-1.610861">
      <ele>381</ele>
      <time>2026-01-05T11:23:03.000Z</time>
    </trkpt>
    <trkpt lat="43.234477" lon="-1.611138">
      <ele>378</ele>
      <time>2026-01-05T11:23:23.000Z</time>
    </trkpt>
    <trkpt lat="43.234391" lon="-1.611441">
      <ele>375</ele>
      <time>2026-01-05T11:23:45.000Z</time>
    </trkpt>
    <trkpt lat="43.234315" lon="-1.61173">
      <ele>373</ele>
      <time>2026-01-05T11:24:05.000Z</time>
    </trkpt>
    <trkpt lat="43.234225" lon="-1.612016">
      <ele>370</ele>
      <time>2026-01-05T11:24:24.000Z</time>
    </trkpt>
    <trkpt lat="43.234167" lon="-1.612314">
      <ele>366</ele>
      <time>2026-01-05T11:24:45.000Z</time>
    </trkpt>
    <trkpt lat="43.234115" lon="-1.612626">
      <ele>363</ele>
      <time>2026-01-05T11:25:05.000Z</time>
    </trkpt>
    <trkpt lat="43.234063" lon="-1.612933">
      <ele>361</ele>
      <time>2026-01-05T11:25:25.000Z</time>
    </trkpt>
    <trkpt lat="43.233973" lon="-1.613219">
      <ele>358</ele>
      <time>2026-01-05T11:25:45.000Z</time>
    </trkpt>
    <trkpt lat="43.233895" lon="-1.613511">
      <ele>352</ele>
      <time>2026-01-05T11:26:07.000Z</time>
    </trkpt>
    <trkpt lat="43.233827" lon="-1.613815">
      <ele>349</ele>
      <time>2026-01-05T11:26:28.000Z</time>
    </trkpt>
    <trkpt lat="43.233779" lon="-1.614125">
      <ele>344</ele>
      <time>2026-01-05T11:26:50.000Z</time>
    </trkpt>
    <trkpt lat="43.233744" lon="-1.614436">
      <ele>341</ele>
      <time>2026-01-05T11:27:09.000Z</time>
    </trkpt>
    <trkpt lat="43.233723" lon="-1.614752">
      <ele>338</ele>
      <time>2026-01-05T11:27:30.000Z</time>
    </trkpt>
    <trkpt lat="43.23374" lon="-1.615066">
      <ele>334</ele>
      <time>2026-01-05T11:27:52.000Z</time>
    </trkpt>
    <trkpt lat="43.23374" lon="-1.615375">
      <ele>327</ele>
      <time>2026-01-05T11:28:16.000Z</time>
    </trkpt>
    <trkpt lat="43.233767" lon="-1.615695">
      <ele>324</ele>
      <time>2026-01-05T11:28:37.000Z</time>
    </trkpt>
    <trkpt lat="43.233875" lon="-1.615969">
      <ele>322</ele>
      <time>2026-01-05T11:28:57.000Z</time>
    </trkpt>
    <trkpt lat="43.233998" lon="-1.616236">
      <ele>317</ele>
      <time>2026-01-05T11:29:18.000Z</time>
    </trkpt>
    <trkpt lat="43.234062" lon="-1.616539">
      <ele>315</ele>
      <time>2026-01-05T11:29:39.000Z</time>
    </trkpt>
    <trkpt lat="43.234116" lon="-1.616847">
      <ele>309</ele>
      <time>2026-01-05T11:30:05.000Z</time>
    </trkpt>
    <trkpt lat="43.234187" lon="-1.617143">
      <ele>307</ele>
      <time>2026-01-05T11:30:23.000Z</time>
    </trkpt>
    <trkpt lat="43.234263" lon="-1.617453">
      <ele>306</ele>
      <time>2026-01-05T11:30:42.000Z</time>
    </trkpt>
    <trkpt lat="43.234256" lon="-1.617773">
      <ele>302</ele>
      <time>2026-01-05T11:31:03.000Z</time>
    </trkpt>
    <trkpt lat="43.234217" lon="-1.618089">
      <ele>299</ele>
      <time>2026-01-05T11:31:24.000Z</time>
    </trkpt>
    <trkpt lat="43.234169" lon="-1.618393">
      <ele>296</ele>
      <time>2026-01-05T11:31:45.000Z</time>
    </trkpt>
    <trkpt lat="43.234072" lon="-1.618685">
      <ele>292</ele>
      <time>2026-01-05T11:32:04.000Z</time>
    </trkpt>
    <trkpt lat="43.234021" lon="-1.618985">
      <ele>290</ele>
      <time>2026-01-05T11:32:26.000Z</time>
    </trkpt>
    <trkpt lat="43.233988" lon="-1.619295">
      <ele>286</ele>
      <time>2026-01-05T11:32:46.000Z</time>
    </trkpt>
    <trkpt lat="43.23389" lon="-1.619573">
      <ele>283</ele>
      <time>2026-01-05T11:33:08.000Z</time>
    </trkpt>
    <trkpt lat="43.233774" lon="-1.619851">
      <ele>278</ele>
      <time>2026-01-05T11:33:49.000Z</time>
    </trkpt>
    <trkpt lat="43.233666" lon="-1.620128">
      <ele>274</ele>
      <time>2026-01-05T11:34:14.000Z</time>
    </trkpt>
    <trkpt lat="43.23346" lon="-1.620279">
      <ele>268</ele>
      <time>2026-01-05T11:34:35.000Z</time>
    </trkpt>
    <trkpt lat="43.233664" lon="-1.620414">
      <ele>261</ele>
      <time>2026-01-05T11:36:40.000Z</time>
    </trkpt>
    <trkpt lat="43.233661" lon="-1.620731">
      <ele>258</ele>
      <time>2026-01-05T11:37:03.000Z</time>
    </trkpt>
    <trkpt lat="43.2336" lon="-1.621044">
      <ele>251</ele>
      <time>2026-01-05T11:37:29.000Z</time>
    </trkpt>
    <trkpt lat="43.233615" lon="-1.62136">
      <ele>245</ele>
      <time>2026-01-05T11:37:52.000Z</time>
    </trkpt>
    <trkpt lat="43.233619" lon="-1.621672">
      <ele>243</ele>
      <time>2026-01-05T11:38:12.000Z</time>
    </trkpt>
    <trkpt lat="43.233649" lon="-1.621987">
      <ele>239</ele>
      <time>2026-01-05T11:38:33.000Z</time>
    </trkpt>
    <trkpt lat="43.233668" lon="-1.622306">
      <ele>238</ele>
      <time>2026-01-05T11:38:52.000Z</time>
    </trkpt>
    <trkpt lat="43.233745" lon="-1.622614">
      <ele>238</ele>
      <time>2026-01-05T11:39:11.000Z</time>
    </trkpt>
    <trkpt lat="43.23387" lon="-1.622874">
      <ele>233</ele>
      <time>2026-01-05T11:39:34.000Z</time>
    </trkpt>
    <trkpt lat="43.233966" lon="-1.62317">
      <ele>230</ele>
      <time>2026-01-05T11:39:57.000Z</time>
    </trkpt>
    <trkpt lat="43.234033" lon="-1.623486">
      <ele>227</ele>
      <time>2026-01-05T11:40:15.000Z</time>
    </trkpt>
    <trkpt lat="43.234102" lon="-1.623787">
      <ele>225</ele>
      <time>2026-01-05T11:40:35.000Z</time>
    </trkpt>
    <trkpt lat="43.234086" lon="-1.624095">
      <ele>219</ele>
      <time>2026-01-05T11:40:57.000Z</time>
    </trkpt>
    <trkpt lat="43.234153" lon="-1.624396">
      <ele>218</ele>
      <time>2026-01-05T11:41:58.000Z</time>
    </trkpt>
    <trkpt lat="43.234159" lon="-1.624711">
      <ele>210</ele>
      <time>2026-01-05T11:42:21.000Z</time>
    </trkpt>
    <trkpt lat="43.234083" lon="-1.625022">
      <ele>208</ele>
      <time>2026-01-05T11:42:40.000Z</time>
    </trkpt>
    <trkpt lat="43.234083" lon="-1.625338">
      <ele>203</ele>
      <time>2026-01-05T11:43:02.000Z</time>
    </trkpt>
    <trkpt lat="43.234101" lon="-1.625651">
      <ele>199</ele>
      <time>2026-01-05T11:43:22.000Z</time>
    </trkpt>
    <trkpt lat="43.234153" lon="-1.625956">
      <ele>197</ele>
      <time>2026-01-05T11:43:41.000Z</time>
    </trkpt>
    <trkpt lat="43.234289" lon="-1.626216">
      <ele>192</ele>
      <time>2026-01-05T11:44:01.000Z</time>
    </trkpt>
    <trkpt lat="43.234503" lon="-1.626355">
      <ele>189</ele>
      <time>2026-01-05T11:44:21.000Z</time>
    </trkpt>
    <trkpt lat="43.234712" lon="-1.626485">
      <ele>186</ele>
      <time>2026-01-05T11:44:42.000Z</time>
    </trkpt>
    <trkpt lat="43.234938" lon="-1.626471">
      <ele>178</ele>
      <time>2026-01-05T11:45:17.000Z</time>
    </trkpt>
    <trkpt lat="43.235141" lon="-1.626619">
      <ele>173</ele>
      <time>2026-01-05T11:45:44.000Z</time>
    </trkpt>
    <trkpt lat="43.235294" lon="-1.626861">
      <ele>162</ele>
      <time>2026-01-05T11:46:16.000Z</time>
    </trkpt>
    <trkpt lat="43.235236" lon="-1.627163">
      <ele>158</ele>
      <time>2026-01-05T11:46:41.000Z</time>
    </trkpt>
    <trkpt lat="43.235172" lon="-1.627468">
      <ele>153</ele>
      <time>2026-01-05T11:47:04.000Z</time>
    </trkpt>
    <trkpt lat="43.23515" lon="-1.627775">
      <ele>147</ele>
      <time>2026-01-05T11:47:27.000Z</time>
    </trkpt>
    <trkpt lat="43.235061" lon="-1.628069">
      <ele>139</ele>
      <time>2026-01-05T11:48:02.000Z</time>
    </trkpt>
    <trkpt lat="43.234926" lon="-1.628321">
      <ele>135</ele>
      <time>2026-01-05T11:48:34.000Z</time>
    </trkpt>
    <trkpt lat="43.234812" lon="-1.628588">
      <ele>127</ele>
      <time>2026-01-05T11:49:24.000Z</time>
    </trkpt>
    <trkpt lat="43.234768" lon="-1.628892">
      <ele>122</ele>
      <time>2026-01-05T11:49:59.000Z</time>
    </trkpt>
    <trkpt lat="43.23467" lon="-1.629175">
      <ele>112</ele>
      <time>2026-01-05T11:50:50.000Z</time>
    </trkpt>
    <trkpt lat="43.234662" lon="-1.629484">
      <ele>107</ele>
      <time>2026-01-05T11:51:28.000Z</time>
    </trkpt>
    <trkpt lat="43.234647" lon="-1.62981">
      <ele>102</ele>
      <time>2026-01-05T11:51:57.000Z</time>
    </trkpt>
    <trkpt lat="43.234712" lon="-1.63011">
      <ele>99</ele>
      <time>2026-01-05T11:52:19.000Z</time>
    </trkpt>
    <trkpt lat="43.234793" lon="-1.630406">
      <ele>98</ele>
      <time>2026-01-05T11:52:52.000Z</time>
    </trkpt>
    <trkpt lat="43.234859" lon="-1.630711">
      <ele>98</ele>
      <time>2026-01-05T11:53:12.000Z</time>
    </trkpt>
    <trkpt lat="43.234928" lon="-1.631009">
      <ele>99</ele>
      <time>2026-01-05T11:53:37.000Z</time>
    </trkpt>
    <trkpt lat="43.234955" lon="-1.631321">
      <ele>96</ele>
      <time>2026-01-05T11:54:35.000Z</time>
    </trkpt>
    <trkpt lat="43.235091" lon="-1.631578">
      <ele>97</ele>
      <time>2026-01-05T11:54:56.000Z</time>
    </trkpt>
    <trkpt lat="43.235239" lon="-1.631821">
      <ele>99</ele>
      <time>2026-01-05T11:55:16.000Z</time>
    </trkpt>
    <trkpt lat="43.235421" lon="-1.632006">
      <ele>98</ele>
      <time>2026-01-05T11:55:36.000Z</time>
    </trkpt>
    <trkpt lat="43.235595" lon="-1.63221">
      <ele>99</ele>
      <time>2026-01-05T11:55:57.000Z</time>
    </trkpt>
    <trkpt lat="43.235708" lon="-1.632482">
      <ele>98</ele>
      <time>2026-01-05T11:56:18.000Z</time>
    </trkpt>
    <trkpt lat="43.235852" lon="-1.632726">
      <ele>99</ele>
      <time>2026-01-05T11:56:37.000Z</time>
    </trkpt>
    <trkpt lat="43.235989" lon="-1.632976">
      <ele>99</ele>
      <time>2026-01-05T11:56:55.000Z</time>
    </trkpt>
    <trkpt lat="43.236103" lon="-1.633247">
      <ele>99</ele>
      <time>2026-01-05T11:57:16.000Z</time>
    </trkpt>
    <trkpt lat="43.236112" lon="-1.633575">
      <ele>96</ele>
      <time>2026-01-05T11:57:36.000Z</time>
    </trkpt>
    <trkpt lat="43.236064" lon="-1.633879">
      <ele>93</ele>
      <time>2026-01-05T11:57:56.000Z</time>
    </trkpt>
    <trkpt lat="43.236056" lon="-1.634189">
      <ele>93</ele>
      <time>2026-01-05T11:58:15.000Z</time>
    </trkpt>
    <trkpt lat="43.236117" lon="-1.63449">
      <ele>93</ele>
      <time>2026-01-05T11:58:34.000Z</time>
    </trkpt>
    <trkpt lat="43.236234" lon="-1.634754">
      <ele>93</ele>
      <time>2026-01-05T11:58:53.000Z</time>
    </trkpt>
    <trkpt lat="43.236392" lon="-1.634978">
      <ele>93</ele>
      <time>2026-01-05T11:59:15.000Z</time>
    </trkpt>
    <trkpt lat="43.236485" lon="-1.635264">
      <ele>95</ele>
      <time>2026-01-05T11:59:34.000Z</time>
    </trkpt>
    <trkpt lat="43.236491" lon="-1.635576">
      <ele>98</ele>
      <time>2026-01-05T11:59:52.000Z</time>
    </trkpt>
    <trkpt lat="43.236295" lon="-1.635759">
      <ele>97</ele>
      <time>2026-01-05T12:00:09.000Z</time>
    </trkpt>
    <trkpt lat="43.23606" lon="-1.635786">
      <ele>95</ele>
      <time>2026-01-05T12:00:30.000Z</time>
    </trkpt>
    <trkpt lat="43.235843" lon="-1.635706">
      <ele>97</ele>
      <time>2026-01-05T12:00:49.000Z</time>
    </trkpt>
    <trkpt lat="43.235639" lon="-1.635848">
      <ele>96</ele>
      <time>2026-01-05T12:01:06.000Z</time>
    </trkpt>
    <trkpt lat="43.235416" lon="-1.635932">
      <ele>94</ele>
      <time>2026-01-05T12:01:25.000Z</time>
    </trkpt>
    <trkpt lat="43.235199" lon="-1.63603">
      <ele>92</ele>
      <time>2026-01-05T12:01:43.000Z</time>
    </trkpt>
    <trkpt lat="43.234977" lon="-1.636152">
      <ele>93</ele>
      <time>2026-01-05T12:02:00.000Z</time>
    </trkpt>
    <trkpt lat="43.234767" lon="-1.636282">
      <ele>93</ele>
      <time>2026-01-05T12:02:19.000Z</time>
    </trkpt>
    <trkpt lat="43.23458" lon="-1.636475">
      <ele>94</ele>
      <time>2026-01-05T12:02:38.000Z</time>
    </trkpt>
    <trkpt lat="43.23439" lon="-1.636663">
      <ele>95</ele>
      <time>2026-01-05T12:02:57.000Z</time>
    </trkpt>
    <trkpt lat="43.234188" lon="-1.636813">
      <ele>96</ele>
      <time>2026-01-05T12:03:15.000Z</time>
    </trkpt>
    <trkpt lat="43.233958" lon="-1.636871">
      <ele>100</ele>
      <time>2026-01-05T12:03:33.000Z</time>
    </trkpt>
    <trkpt lat="43.233982" lon="-1.637178">
      <ele>100</ele>
      <time>2026-01-05T12:05:05.000Z</time>
    </trkpt>
    <trkpt lat="43.234054" lon="-1.637482">
      <ele>100</ele>
      <time>2026-01-05T12:05:23.000Z</time>
    </trkpt>
    <trkpt lat="43.234094" lon="-1.637789">
      <ele>95</ele>
      <time>2026-01-05T12:06:17.000Z</time>
    </trkpt>
    <trkpt lat="43.234148" lon="-1.638097">
      <ele>95</ele>
      <time>2026-01-05T12:06:35.000Z</time>
    </trkpt>
    <trkpt lat="43.23413" lon="-1.638408">
      <ele>96</ele>
      <time>2026-01-05T12:06:53.000Z</time>
    </trkpt>
    <trkpt lat="43.234123" lon="-1.638731">
      <ele>95</ele>
      <time>2026-01-05T12:07:15.000Z</time>
    </trkpt>
    <trkpt lat="43.23407" lon="-1.639039">
      <ele>93</ele>
      <time>2026-01-05T12:07:43.000Z</time>
    </trkpt>
    <trkpt lat="43.233997" lon="-1.639335">
      <ele>93</ele>
      <time>2026-01-05T12:08:37.000Z</time>
    </trkpt>
  </trkseg>
</trk></gpx>